Weather at Lauterbach Airport

Public forecast

Using degrees Celsius for public forecast. Weather courtesy of forecast.io.

Closest aviation weather report (METAR) to Lauterbach Airport

Closest report is Fritzlar Army Airfield, 26.3 nm (48.7 km) N. Retrieved 2020/09/18 19:20 UTC (36 minutes ago):

ETHF 181920Z 30003KT 9999 FEW360 11/06 Q1024 BLU+

Closest aviation forecast (TAF) to Lauterbach Airport

Forecast is more than 12 hours old.

Closest forecast is Fritzlar Army Airfield, 26.3 nm (48.7 km) N. Retrieved 2020/09/07 12:21 UTC (11 days ago):

TAF ETHF 071611Z 0712/0802 VRB02KT 9999 NSW FEW030 PROB30 0723/0802 VRB01KT 5000 MIFG SKC